Time;durP1;ratioP1;P1;durP2;ratioP2;P2;SDS_P1;SDS_P2;PMS_P1;PMS_P2;Temp;Humidity;BMP_temperature;BMP_pressure;BME280_temperature;BME280_humidity;BME280_pressure;Samples;Min_cycle;Max_cycle;Signal;HPM_P1;HPM_P2
2022/02/09 00:04:03;;;;;;;3.13;2.80;;;9.10;83.30;;;;;;5030234;28;20702;-49
2022/02/09 00:09:04;;;;;;;5.20;2.87;;;9.00;83.40;;;;;;5031186;28;20550;-49
2022/02/09 00:11:39;;;;;;;3.20;2.90;;;9.10;83.40;;;;;;5026875;28;20489;-50
2022/02/09 00:22:24;;;;;;;3.90;3.50;;;9.10;83.20;;;;;;5029909;28;20525;-50
2022/02/09 01:38:58;;;;;;;4.67;3.30;;;9.10;81.20;;;;;;5026712;28;20473;-49
2022/02/09 01:56:47;;;;;;;4.37;3.50;;;9.10;80.90;;;;;;5024974;28;20534;-49
2022/02/09 01:59:13;;;;;;;3.60;3.30;;;9.20;80.80;;;;;;5025526;28;20528;-49
2022/02/09 02:01:40;;;;;;;3.97;3.33;;;9.10;81.10;;;;;;5010154;28;20960;-49
2022/02/09 02:04:07;;;;;;;4.00;3.60;;;9.10;81.40;;;;;;5025209;28;20951;-50
2022/02/09 02:06:35;;;;;;;3.60;3.30;;;9.10;81.20;;;;;;5023670;28;20455;-49
2022/02/09 02:09:03;;;;;;;3.77;3.20;;;9.10;81.50;;;;;;5026041;28;20455;-49
2022/02/09 02:11:41;;;;;;;3.83;3.40;;;9.00;81.80;;;;;;5024869;28;20474;-50
2022/02/09 02:14:31;;;;;;;3.47;2.73;;;9.10;81.80;;;;;;5026451;28;20546;-49
2022/02/09 02:19:36;;;;;;;4.00;3.50;;;9.10;81.70;;;;;;5026361;28;20483;-49
2022/02/09 02:41:18;;;;;;;5.20;4.50;;;9.10;80.90;;;;;;5026105;28;20696;-49
2022/02/09 02:46:31;;;;;;;5.03;4.47;;;9.20;81.10;;;;;;5025168;28;20460;-49
2022/02/09 03:08:25;;;;;;;5.13;4.63;;;9.10;82.10;;;;;;5029355;28;20455;-49
2022/02/09 03:13:04;;;;;;;4.90;4.40;;;9.00;82.20;;;;;;5028280;28;20471;-49
2022/02/09 03:15:48;;;;;;;4.90;4.50;;;9.00;82.20;;;;;;5011924;28;20481;-49
2022/02/09 03:20:49;;;;;;;9.03;5.03;;;9.00;82.30;;;;;;5026870;28;20491;-49
2022/02/09 03:50:54;;;;;;;7.30;6.10;;;8.90;82.80;;;;;;5028245;28;20467;-46
2022/02/09 03:53:35;;;;;;;7.03;6.30;;;8.90;82.90;;;;;;5027416;28;20980;-47
2022/02/09 03:58:46;;;;;;;5.80;5.20;;;8.90;82.70;;;;;;5025439;28;20471;-46
2022/02/09 04:01:15;;;;;;;6.30;5.67;;;8.90;82.80;;;;;;5026898;28;21011;-46
2022/02/09 04:03:43;;;;;;;6.40;5.40;;;8.90;82.70;;;;;;5023088;28;20847;-46
2022/02/09 04:06:10;;;;;;;6.63;5.90;;;8.90;83.00;;;;;;5027102;28;20824;-46
2022/02/09 04:08:44;;;;;;;6.67;5.33;;;8.90;83.00;;;;;;5008799;28;20459;-47
2022/02/09 04:11:22;;;;;;;6.40;5.57;;;8.90;83.10;;;;;;5027486;28;20458;-47
2022/02/09 04:44:14;;;;;;;7.20;5.70;;;8.90;82.90;;;;;;5026518;28;20952;-46
2022/02/09 04:49:40;;;;;;;7.30;6.13;;;8.90;83.10;;;;;;5028541;28;20459;-47
2022/02/09 04:52:35;;;;;;;6.90;6.03;;;8.90;83.10;;;;;;5025300;28;20462;-46
2022/02/09 04:55:53;;;;;;;8.40;5.80;;;8.90;83.10;;;;;;5026260;28;20829;-46
2022/02/09 04:58:00;;;;;;;7.13;6.00;;;8.90;83.10;;;;;;5015781;28;20482;-46
2022/02/09 05:00:46;;;;;;;7.43;5.70;;;8.90;82.70;;;;;;5027201;28;20483;-47
2022/02/09 05:28:01;;;;;;;7.97;6.50;;;8.90;82.40;;;;;;5023014;28;20470;-47
2022/02/09 05:30:08;;;;;;;6.40;5.80;;;8.90;82.60;;;;;;5020100;28;20961;-46
2022/02/09 05:32:36;;;;;;;7.57;6.80;;;8.90;82.60;;;;;;5025048;28;20499;-46
2022/02/09 05:35:03;;;;;;;8.30;6.77;;;8.90;82.60;;;;;;5026716;28;20551;-47
2022/02/09 05:37:30;;;;;;;6.60;5.27;;;8.90;82.50;;;;;;5011658;28;20513;-46
2022/02/09 05:39:57;;;;;;;6.43;5.83;;;8.90;82.40;;;;;;5011415;28;20467;-47
2022/02/09 05:42:24;;;;;;;7.17;5.77;;;8.90;82.70;;;;;;5025617;28;20992;-47
2022/02/09 05:44:51;;;;;;;6.97;6.27;;;8.90;82.40;;;;;;5025397;28;20459;-47
2022/02/09 05:47:58;;;;;;;7.07;5.97;;;8.90;82.30;;;;;;4988321;28;20487;-47
2022/02/09 05:50:30;;;;;;;7.57;6.87;;;8.90;82.60;;;;;;5024215;28;20467;-46
2022/02/09 05:53:14;;;;;;;7.57;5.57;;;8.90;82.40;;;;;;5026107;28;20463;-46
2022/02/09 05:55:49;;;;;;;8.53;6.57;;;8.90;82.40;;;;;;5022433;28;20511;-46
2022/02/09 05:58:47;;;;;;;7.83;7.00;;;8.90;82.40;;;;;;5027548;28;20459;-47
2022/02/09 06:01:10;;;;;;;8.17;7.30;;;8.90;82.30;;;;;;5012709;28;20495;-46
2022/02/09 06:03:37;;;;;;;7.50;6.27;;;8.90;82.30;;;;;;5006497;28;20458;-47
2022/02/09 06:06:04;;;;;;;19.13;11.83;;;8.90;82.40;;;;;;5025814;28;20450;-46
2022/02/09 06:08:31;;;;;;;12.07;8.90;;;8.90;82.40;;;;;;5003850;28;20459;-46
2022/02/09 06:11:11;;;;;;;7.57;6.07;;;8.80;82.80;;;;;;5023656;28;20998;-47
2022/02/09 06:13:53;;;;;;;8.30;7.03;;;8.80;82.70;;;;;;5018178;28;20986;-47
2022/02/09 06:21:51;;;;;;;10.53;6.30;;;8.80;82.70;;;;;;5021455;28;20483;-47
2022/02/09 06:24:18;;;;;;;10.40;7.00;;;8.80;82.90;;;;;;5024949;28;20464;-47
2022/02/09 06:26:45;;;;;;;9.60;7.63;;;8.80;82.90;;;;;;5027176;28;20455;-46
2022/02/09 06:29:13;;;;;;;9.50;7.20;;;8.80;83.10;;;;;;5010201;28;20457;-47
2022/02/09 06:31:40;;;;;;;8.30;6.33;;;8.80;82.90;;;;;;5029638;28;20988;-47
2022/02/09 06:34:08;;;;;;;8.10;6.53;;;8.80;83.00;;;;;;5029717;28;20475;-46
2022/02/09 06:36:39;;;;;;;8.83;6.73;;;8.80;82.90;;;;;;5029708;28;20456;-46
2022/02/09 06:39:08;;;;;;;10.47;7.20;;;8.80;83.00;;;;;;5030822;28;20455;-46
2022/02/09 06:41:35;;;;;;;9.17;6.93;;;8.80;83.00;;;;;;5030533;28;20497;-46
2022/02/09 06:44:03;;;;;;;11.03;7.70;;;8.80;83.00;;;;;;5022206;28;20819;-46
2022/02/09 06:46:34;;;;;;;11.27;7.60;;;8.80;83.10;;;;;;5013015;28;20902;-47
2022/02/09 06:49:07;;;;;;;8.77;7.33;;;8.80;83.00;;;;;;5031950;28;20799;-46
2022/02/09 06:51:37;;;;;;;8.33;6.73;;;8.80;83.30;;;;;;5029747;28;20471;-50
2022/02/09 06:54:16;;;;;;;10.40;7.77;;;8.70;83.40;;;;;;5026524;28;20468;-49
2022/02/09 07:01:48;;;;;;;10.47;7.80;;;8.80;83.30;;;;;;5027826;28;20502;-47
2022/02/09 07:04:15;;;;;;;10.70;7.40;;;8.80;83.30;;;;;;5027218;28;20464;-47
2022/02/09 07:06:42;;;;;;;9.30;7.37;;;8.80;83.40;;;;;;5016581;28;21071;-48
2022/02/09 07:09:09;;;;;;;12.70;7.87;;;8.80;83.30;;;;;;5031371;28;20478;-50
2022/02/09 07:11:41;;;;;;;8.83;6.37;;;8.80;83.50;;;;;;5041754;28;20463;-50
2022/02/09 07:14:09;;;;;;;9.50;6.70;;;8.80;83.50;;;;;;5039150;28;20448;-47
2022/02/09 07:16:38;;;;;;;14.87;8.73;;;8.80;83.40;;;;;;5028065;28;20482;-47
2022/02/09 07:19:11;;;;;;;9.40;7.30;;;8.80;83.30;;;;;;5028127;28;20447;-50
2022/02/09 07:21:40;;;;;;;15.03;7.80;;;8.80;83.50;;;;;;5028640;28;20518;-49
2022/02/09 07:24:19;;;;;;;17.97;9.93;;;8.80;83.50;;;;;;5025695;28;20471;-48
2022/02/09 07:27:24;;;;;;;13.33;7.77;;;8.80;83.70;;;;;;5027977;28;20439;-48
2022/02/09 07:29:49;;;;;;;11.40;8.13;;;8.90;83.80;;;;;;5026134;28;20468;-47
2022/02/09 07:32:16;;;;;;;13.10;8.80;;;8.90;83.70;;;;;;5008212;28;20463;-48
2022/02/09 07:34:43;;;;;;;12.27;7.57;;;8.90;83.70;;;;;;5027923;28;20467;-47
2022/02/09 07:37:15;;;;;;;10.63;8.67;;;8.90;83.80;;;;;;5015189;28;20479;-47
2022/02/09 07:39:43;;;;;;;10.80;8.27;;;8.90;83.80;;;;;;5028053;28;20475;-47
2022/02/09 07:42:13;;;;;;;16.60;8.23;;;8.90;83.80;;;;;;5030597;28;20480;-47
2022/02/09 07:53:08;;;;;;;13.33;8.03;;;9.00;83.60;;;;;;5023858;28;20463;-47
2022/02/09 07:55:36;;;;;;;10.77;8.80;;;9.00;83.50;;;;;;5024719;28;20911;-47
2022/02/09 07:58:03;;;;;;;11.60;7.80;;;9.10;83.60;;;;;;5030109;28;20443;-47
2022/02/09 08:00:31;;;;;;;12.80;8.60;;;9.10;83.80;;;;;;5027089;28;20465;-47
2022/02/09 08:02:58;;;;;;;12.27;8.43;;;9.10;83.70;;;;;;5014496;28;20454;-47
2022/02/09 08:05:25;;;;;;;9.93;6.73;;;9.10;83.50;;;;;;5025589;28;20468;-47
2022/02/09 08:07:53;;;;;;;10.70;7.43;;;9.20;83.30;;;;;;5027901;28;20459;-47
2022/02/09 08:10:37;;;;;;;15.90;9.60;;;9.20;83.10;;;;;;5009666;28;20459;-47
2022/02/09 08:29:42;;;;;;;10.40;6.80;;;9.40;82.60;;;;;;5026473;28;20971;-47
2022/02/09 08:34:38;;;;;;;12.73;7.80;;;9.50;82.60;;;;;;5026010;28;20467;-47
2022/02/09 08:37:06;;;;;;;11.90;6.77;;;9.50;82.30;;;;;;5026084;28;20570;-47
2022/02/09 08:39:34;;;;;;;13.73;7.80;;;9.50;82.30;;;;;;5028290;28;20823;-47
2022/02/09 08:42:02;;;;;;;11.80;6.60;;;9.60;81.90;;;;;;5029555;28;20541;-47
2022/02/09 08:44:28;;;;;;;13.30;8.87;;;9.60;82.00;;;;;;4996917;28;20459;-47
2022/02/09 08:46:55;;;;;;;10.37;6.97;;;9.60;81.80;;;;;;5009874;28;20479;-47
2022/02/09 08:49:22;;;;;;;9.63;7.30;;;9.60;81.90;;;;;;5025411;28;20841;-47
2022/02/09 08:51:49;;;;;;;8.53;6.80;;;9.70;82.00;;;;;;5010870;28;20467;-47
2022/02/09 08:54:17;;;;;;;8.70;6.80;;;9.70;81.80;;;;;;5024397;28;20502;-47
2022/02/09 08:56:43;;;;;;;9.60;7.30;;;9.70;81.70;;;;;;5010379;28;20463;-47
2022/02/09 08:59:10;;;;;;;8.90;7.30;;;9.80;81.60;;;;;;5027919;28;20535;-47
2022/02/09 09:01:49;;;;;;;9.57;7.10;;;9.70;81.60;;;;;;5024477;28;20837;-47
2022/02/09 09:04:21;;;;;;;9.67;6.93;;;9.80;82.00;;;;;;5027172;28;20455;-47
2022/02/09 09:06:55;;;;;;;10.37;6.70;;;9.80;81.40;;;;;;5026077;28;20466;-47
2022/02/09 09:31:46;;;;;;;8.03;6.67;;;10.40;79.90;;;;;;5023779;28;20463;-47
2022/02/09 10:34:01;;;;;;;6.27;3.93;;;11.10;75.60;;;;;;5027102;28;20463;-46
2022/02/09 10:36:29;;;;;;;7.10;4.20;;;11.10;75.90;;;;;;5029028;28;20827;-46
2022/02/09 10:39:12;;;;;;;5.00;4.00;;;11.10;75.90;;;;;;5028477;28;20457;-46
2022/02/09 10:42:02;;;;;;;5.50;3.50;;;11.10;75.70;;;;;;5012575;28;20895;-46
2022/02/09 10:44:52;;;;;;;10.80;4.97;;;11.10;76.30;;;;;;5029334;28;20986;-46
2022/02/09 10:47:36;;;;;;;7.23;4.70;;;11.10;76.50;;;;;;4997506;28;21225;-46
2022/02/09 10:52:59;;;;;;;5.80;3.77;;;11.20;75.10;;;;;;5026126;28;20521;-46
2022/02/09 10:55:30;;;;;;;3.80;3.40;;;11.20;75.60;;;;;;5029466;28;20966;-46
2022/02/09 10:57:59;;;;;;;4.80;3.73;;;11.20;75.80;;;;;;5028269;28;20473;-46
2022/02/09 11:00:27;;;;;;;6.27;3.83;;;11.20;75.70;;;;;;5025603;28;20834;-46
2022/02/09 11:02:55;;;;;;;4.47;3.77;;;11.20;75.40;;;;;;5029005;28;20589;-46
2022/02/09 11:05:22;;;;;;;4.23;3.83;;;11.20;76.00;;;;;;5028747;28;20602;-46
2022/02/09 11:07:51;;;;;;;4.63;3.80;;;11.30;75.50;;;;;;5029253;28;20534;-46
2022/02/09 11:10:18;;;;;;;7.87;4.53;;;11.20;75.60;;;;;;5027970;28;20824;-46
2022/02/09 11:12:45;;;;;;;4.77;3.57;;;11.30;75.20;;;;;;5010947;28;20502;-46
2022/02/09 11:15:20;;;;;;;4.23;3.60;;;11.30;75.20;;;;;;5028479;28;20939;-46
2022/02/09 11:17:48;;;;;;;4.33;3.93;;;11.30;75.10;;;;;;5008148;28;20474;-46
2022/02/09 11:20:24;;;;;;;7.83;3.97;;;11.30;75.30;;;;;;5028368;28;20534;-46
2022/02/09 11:22:51;;;;;;;3.57;3.23;;;11.40;76.20;;;;;;5009483;28;20936;-46
2022/02/09 11:25:31;;;;;;;4.20;3.70;;;11.50;75.50;;;;;;5025066;28;20463;-46
2022/02/09 11:28:47;;;;;;;4.07;3.37;;;11.50;74.90;;;;;;5024678;28;20808;-46
2022/02/09 11:31:20;;;;;;;3.20;2.90;;;11.50;74.50;;;;;;5027643;28;20452;-46
2022/02/09 11:34:01;;;;;;;4.37;3.37;;;11.60;74.20;;;;;;5027962;28;20476;-46
2022/02/09 11:36:45;;;;;;;5.43;2.80;;;11.70;75.30;;;;;;5023864;28;20544;-46
2022/02/09 11:39:42;;;;;;;4.03;3.43;;;11.80;74.00;;;;;;5024415;28;20486;-46
2022/02/09 11:42:39;;;;;;;4.13;3.03;;;11.90;73.80;;;;;;5026785;28;20494;-46
2022/02/09 11:45:41;;;;;;;3.50;3.20;;;12.00;74.00;;;;;;5026178;28;20468;-46
2022/02/09 11:51:13;;;;;;;;;;;;;;;;;;;;;
2022/02/09 12:11:33;;;;;;;6.70;3.23;;;12.30;72.40;;;;;;5027214;28;20960;-46
2022/02/09 12:14:33;;;;;;;7.40;3.20;;;12.30;72.70;;;;;;5026864;28;20478;-46
2022/02/09 12:19:34;;;;;;;4.67;3.00;;;12.40;73.90;;;;;;5028083;28;20804;-46
2022/02/09 12:22:14;;;;;;;7.60;3.20;;;12.50;73.40;;;;;;5026733;28;20491;-45
2022/02/09 12:24:42;;;;;;;6.07;3.60;;;12.60;73.60;;;;;;5025704;28;21020;-46
2022/02/09 12:27:13;;;;;;;2.83;2.53;;;12.70;73.30;;;;;;5028141;28;20462;-46
2022/02/09 12:29:58;;;;;;;6.10;3.33;;;12.80;72.10;;;;;;5010935;28;20467;-45
2022/02/09 12:32:28;;;;;;;5.83;2.80;;;12.90;72.20;;;;;;5012836;28;20787;-45
2022/02/09 12:34:55;;;;;;;4.07;2.83;;;12.90;71.80;;;;;;5027033;28;20498;-45
2022/02/09 12:37:23;;;;;;;5.47;3.33;;;12.90;71.60;;;;;;5029988;28;20562;-46
2022/02/09 12:40:01;;;;;;;6.20;3.60;;;12.80;71.60;;;;;;5013776;28;20907;-46
2022/02/09 12:42:36;;;;;;;4.67;2.60;;;12.80;72.00;;;;;;5001254;28;20914;-46
2022/02/09 12:45:08;;;;;;;3.60;2.93;;;12.80;72.10;;;;;;5024776;28;21006;-47
2022/02/09 12:47:37;;;;;;;5.07;2.60;;;12.80;72.30;;;;;;5029654;28;21186;-46
2022/02/09 12:50:11;;;;;;;5.67;2.93;;;12.80;72.00;;;;;;5026784;28;20474;-46
2022/02/09 12:52:39;;;;;;;7.77;3.07;;;12.90;72.00;;;;;;5023598;28;20975;-46
2022/02/09 12:55:15;;;;;;;4.90;2.47;;;12.90;72.20;;;;;;5007618;28;20498;-45
2022/02/09 12:57:51;;;;;;;8.10;2.10;;;13.00;72.40;;;;;;5026302;28;20824;-46
2022/02/09 13:00:43;;;;;;;2.60;2.07;;;13.00;70.70;;;;;;5003349;28;20570;-46
2022/02/09 13:03:15;;;;;;;6.17;2.57;;;13.10;70.80;;;;;;5024553;28;20487;-45
2022/02/09 13:06:00;;;;;;;9.10;2.67;;;13.20;70.80;;;;;;5019721;28;20491;-45
2022/02/09 13:08:29;;;;;;;3.93;2.33;;;13.20;70.20;;;;;;5025272;28;20458;-46
2022/02/09 13:13:45;;;;;;;6.20;1.93;;;13.30;69.90;;;;;;5027400;28;20468;-46
2022/02/09 14:06:58;;;;;;;1.70;1.43;;;14.20;66.50;;;;;;5028502;28;20463;-50
2022/02/09 14:12:19;;;;;;;4.67;1.87;;;14.30;67.00;;;;;;5022301;28;20458;-49
2022/02/09 14:15:18;;;;;;;5.30;1.80;;;14.30;66.80;;;;;;5026709;28;20859;-50
2022/02/09 14:56:41;;;;;;;3.70;2.23;;;14.60;65.40;;;;;;4952473;28;20474;-49
2022/02/09 14:59:10;;;;;;;3.23;1.27;;;14.50;65.90;;;;;;4953056;28;20446;-49
2022/02/09 15:01:45;;;;;;;2.20;1.37;;;14.50;66.30;;;;;;4998966;28;21051;-49
2022/02/09 15:07:13;;;;;;;3.97;2.00;;;14.60;66.10;;;;;;5032565;28;20462;-49
2022/02/09 15:09:50;;;;;;;4.77;1.70;;;14.60;65.90;;;;;;5031015;28;20461;-49
2022/02/09 15:12:24;;;;;;;5.00;1.60;;;14.60;65.30;;;;;;5019687;28;20991;-46
2022/02/09 15:17:45;;;;;;;3.50;2.20;;;14.60;65.00;;;;;;5030007;28;20907;-47
2022/02/09 15:22:54;;;;;;;3.20;2.00;;;14.50;65.40;;;;;;5031943;28;20578;-47
2022/02/09 15:25:22;;;;;;;2.20;1.30;;;14.50;65.90;;;;;;5027139;28;20474;-46
2022/02/09 15:27:57;;;;;;;6.47;1.63;;;14.50;65.70;;;;;;5028535;28;20458;-49
2022/02/09 15:30:26;;;;;;;4.00;1.47;;;14.30;65.90;;;;;;5011232;28;20546;-49
2022/02/09 15:32:55;;;;;;;3.57;1.50;;;14.20;65.80;;;;;;5029545;28;20534;-49
2022/02/09 15:38:10;;;;;;;6.40;1.90;;;14.10;65.70;;;;;;5029354;28;20477;-47
2022/02/09 15:43:59;;;;;;;2.60;2.23;;;14.00;66.20;;;;;;5029704;28;21218;-46
2022/02/09 15:58:15;;;;;;;9.13;1.73;;;13.70;67.00;;;;;;5030420;28;20538;-46
2022/02/09 16:06:01;;;;;;;4.60;1.60;;;13.50;67.50;;;;;;5032060;28;20487;-50
2022/02/09 16:11:24;;;;;;;5.03;1.90;;;13.40;68.20;;;;;;5027914;28;20820;-49
2022/02/09 16:22:06;;;;;;;2.17;1.90;;;13.10;69.20;;;;;;5027675;28;20847;-46
2022/02/09 16:25:08;;;;;;;2.23;1.90;;;13.10;69.60;;;;;;5025321;28;21147;-46
2022/02/09 16:36:36;;;;;;;3.60;3.10;;;12.90;71.70;;;;;;5030338;28;20459;-46
2022/02/09 16:46:51;;;;;;;6.47;3.93;;;12.60;72.90;;;;;;5028721;28;20542;-46
2022/02/09 16:49:34;;;;;;;5.13;3.63;;;12.50;73.50;;;;;;5029420;28;20451;-46
2022/02/09 16:52:12;;;;;;;3.87;3.27;;;12.50;73.70;;;;;;5027148;28;20458;-46
2022/02/09 16:54:54;;;;;;;5.17;3.87;;;12.40;73.90;;;;;;5013640;28;20455;-46
2022/02/09 17:19:34;;;;;;;7.60;4.37;;;11.90;75.50;;;;;;5026817;28;20460;-47
2022/02/09 17:22:00;;;;;;;8.37;5.03;;;11.80;75.60;;;;;;5015331;28;20554;-46
2022/02/09 17:24:27;;;;;;;4.93;3.63;;;11.80;75.80;;;;;;5027558;28;20488;-46
2022/02/09 17:26:55;;;;;;;5.70;3.70;;;11.80;75.80;;;;;;5029063;28;20455;-46
2022/02/09 17:29:30;;;;;;;4.50;3.80;;;11.70;75.80;;;;;;5011168;28;20464;-47
2022/02/09 17:32:06;;;;;;;7.73;3.80;;;11.60;75.90;;;;;;5026892;28;20473;-45
2022/02/09 17:37:35;;;;;;;8.63;4.57;;;11.50;75.90;;;;;;5027735;28;20456;-46
2022/02/09 17:53:51;;;;;;;4.30;3.30;;;11.20;76.20;;;;;;5027740;28;20456;-46
2022/02/09 17:56:22;;;;;;;5.50;3.70;;;11.10;76.30;;;;;;5026448;28;20467;-47
2022/02/09 17:58:52;;;;;;;5.70;3.03;;;11.10;76.40;;;;;;5027375;28;20454;-46
2022/02/09 18:01:20;;;;;;;5.83;3.30;;;11.00;76.40;;;;;;5028123;28;20571;-47
2022/02/09 18:03:52;;;;;;;3.67;3.27;;;11.00;76.40;;;;;;5030488;28;20491;-47
2022/02/09 18:06:27;;;;;;;6.33;3.50;;;10.90;76.50;;;;;;5013983;28;20478;-47
2022/02/09 18:11:39;;;;;;;;;;;;;;;;;;;;;
2022/02/09 18:25:38;;;;;;;9.27;4.90;;;10.40;77.30;;;;;;5028197;28;20905;-46
2022/02/09 18:31:09;;;;;;;8.50;5.60;;;10.30;77.40;;;;;;5030232;28;20462;-46
2022/02/09 18:40:08;;;;;;;;;;;;;;;;;;;;;
2022/02/09 18:44:28;;;;;;;10.67;5.37;;;10.00;78.00;;;;;;5029459;28;20493;-46
2022/02/09 18:47:07;;;;;;;6.60;6.00;;;9.90;78.00;;;;;;5028669;28;20886;-47
2022/02/09 19:03:37;;;;;;;11.30;6.13;;;9.70;78.40;;;;;;5030144;28;20513;-46
2022/02/09 19:06:28;;;;;;;10.00;6.50;;;9.70;78.10;;;;;;5027117;28;20975;-46
2022/02/09 19:14:28;;;;;;;4.80;2.87;;;9.70;77.60;;;;;;5027715;28;20444;-46
2022/02/09 19:17:00;;;;;;;;;;;;;;;;;;;;;
2022/02/09 19:28:32;;;;;;;4.27;2.80;;;9.60;77.60;;;;;;5029701;28;20440;-46
2022/02/09 19:33:24;;;;;;;5.87;4.13;;;9.50;77.40;;;;;;5030869;28;20463;-47
2022/02/09 19:42:03;;;;;;;4.67;3.40;;;9.40;77.70;;;;;;5028387;28;20547;-46
2022/02/09 19:50:04;;;;;;;8.17;4.20;;;9.20;78.10;;;;;;5029707;28;20978;-46
2022/02/09 19:55:35;;;;;;;4.70;3.57;;;9.20;78.20;;;;;;5028517;28;20462;-46
2022/02/09 19:58:03;;;;;;;5.93;4.10;;;9.10;78.30;;;;;;5008945;28;20974;-47
2022/02/09 20:00:32;;;;;;;4.67;3.77;;;9.00;78.40;;;;;;5030091;28;20447;-46
2022/02/09 20:02:59;;;;;;;4.40;3.60;;;9.00;78.40;;;;;;5014631;28;20483;-46
2022/02/09 20:05:27;;;;;;;5.20;3.70;;;8.90;78.60;;;;;;5028928;28;20589;-46
2022/02/09 20:07:55;;;;;;;6.60;4.40;;;8.90;78.70;;;;;;5012345;28;20563;-49
2022/02/09 20:10:23;;;;;;;7.20;4.50;;;8.80;78.70;;;;;;5031246;28;20522;-49
2022/02/09 20:12:50;;;;;;;5.37;3.80;;;8.80;78.70;;;;;;5030507;28;20869;-49
2022/02/09 20:15:18;;;;;;;8.80;4.83;;;8.80;78.80;;;;;;5032061;28;20544;-49
2022/02/09 20:17:47;;;;;;;9.50;6.00;;;8.70;78.90;;;;;;5028923;28;20502;-49
2022/02/09 20:20:22;;;;;;;5.90;5.00;;;8.70;78.90;;;;;;5016472;28;20542;-48
2022/02/09 20:22:51;;;;;;;7.60;5.07;;;8.60;78.90;;;;;;5032040;28;20455;-49
2022/02/09 20:25:20;;;;;;;6.13;4.67;;;8.60;79.00;;;;;;5029915;28;20582;-49
2022/02/09 20:27:51;;;;;;;6.57;5.37;;;8.60;79.10;;;;;;4994047;28;21034;-49
2022/02/09 20:30:21;;;;;;;10.77;6.13;;;8.50;79.20;;;;;;5030060;28;20478;-48
2022/02/09 20:32:53;;;;;;;9.83;6.97;;;8.50;79.20;;;;;;5032403;28;20491;-50
2022/02/09 20:35:21;;;;;;;8.57;6.47;;;8.50;79.30;;;;;;5032222;28;20550;-49
2022/02/09 20:37:51;;;;;;;8.57;7.07;;;8.40;79.40;;;;;;5034207;28;20458;-49
2022/02/09 20:42:53;;;;;;;8.57;7.40;;;8.30;79.80;;;;;;5033453;28;20493;-49
2022/02/09 20:45:31;;;;;;;12.43;7.80;;;8.30;79.80;;;;;;5029754;28;20483;-49
2022/02/09 20:48:05;;;;;;;9.13;7.30;;;8.20;79.90;;;;;;5031637;28;20479;-48
2022/02/09 20:50:34;;;;;;;14.07;7.93;;;8.20;80.10;;;;;;5034378;28;20458;-49
2022/02/09 20:53:02;;;;;;;12.10;8.10;;;8.10;80.20;;;;;;5035079;28;20460;-49
2022/02/09 20:55:30;;;;;;;10.97;7.10;;;8.10;80.20;;;;;;5010813;28;20467;-49
2022/02/09 20:57:58;;;;;;;11.23;7.50;;;8.00;80.20;;;;;;5030287;28;20463;-49
2022/02/09 21:00:41;;;;;;;10.67;7.67;;;8.00;80.40;;;;;;5028023;28;20972;-49
2022/02/09 21:26:55;;;;;;;10.30;6.20;;;7.80;80.50;;;;;;5033197;28;21007;-50
2022/02/09 21:32:48;;;;;;;10.00;6.90;;;7.80;80.10;;;;;;5032138;28;20460;-49
2022/02/09 21:46:51;;;;;;;10.80;6.83;;;7.50;80.60;;;;;;5035111;28;20499;-49
2022/02/09 21:54:31;;;;;;;7.97;6.97;;;7.40;80.60;;;;;;5035023;28;20530;-49
2022/02/09 21:57:15;;;;;;;8.50;7.17;;;7.40;80.90;;;;;;5021674;28;20463;-48
2022/02/09 22:00:23;;;;;;;12.57;6.80;;;7.30;81.00;;;;;;5032499;28;20470;-48
2022/02/09 22:25:41;;;;;;;12.30;8.60;;;7.00;81.50;;;;;;5033508;28;20570;-48
2022/02/09 22:54:25;;;;;;;11.67;10.10;;;6.70;81.30;;;;;;5030769;28;20448;-49
2022/02/09 22:56:30;;;;;;;11.50;8.70;;;6.70;81.30;;;;;;5030512;28;20864;-48
2022/02/09 22:58:58;;;;;;;13.83;7.43;;;6.60;81.40;;;;;;5029569;28;20835;-48
2022/02/09 23:01:36;;;;;;;9.73;7.93;;;6.60;81.40;;;;;;5029326;28;20451;-49
